sensor_id;sensor_type;location;lat;lon;timestamp;P1;durP1;ratioP1;P2;durP2;ratioP2
30593;SDS011;33199;47.590;8.300;2022-09-02T00:01:03;0.98;;;0.98;;
30593;SDS011;33199;47.590;8.300;2022-09-02T00:03:44;0.80;;;0.80;;
30593;SDS011;33199;47.590;8.300;2022-09-02T00:06:11;0.95;;;0.80;;
30593;SDS011;33199;47.590;8.300;2022-09-02T00:08:38;1.02;;;0.93;;
30593;SDS011;33199;47.590;8.300;2022-09-02T00:11:04;0.88;;;0.88;;
30593;SDS011;33199;47.590;8.300;2022-09-02T00:13:31;1.73;;;1.20;;
30593;SDS011;33199;47.590;8.300;2022-09-02T00:15:58;0.90;;;0.90;;
30593;SDS011;33199;47.590;8.300;2022-09-02T00:18:23;0.80;;;0.80;;
30593;SDS011;33199;47.590;8.300;2022-09-02T00:20:50;0.90;;;0.88;;
30593;SDS011;33199;47.590;8.300;2022-09-02T00:23:16;1.05;;;0.85;;
30593;SDS011;33199;47.590;8.300;2022-09-02T00:25:41;1.27;;;1.20;;
30593;SDS011;33199;47.590;8.300;2022-09-02T00:28:08;1.00;;;1.00;;
30593;SDS011;33199;47.590;8.300;2022-09-02T00:30:35;1.33;;;0.90;;
30593;SDS011;33199;47.590;8.300;2022-09-02T00:33:00;1.20;;;1.20;;
30593;SDS011;33199;47.590;8.300;2022-09-02T00:35:26;1.52;;;1.15;;
30593;SDS011;33199;47.590;8.300;2022-09-02T00:37:52;0.88;;;0.88;;
30593;SDS011;33199;47.590;8.300;2022-09-02T00:40:18;0.93;;;0.93;;
30593;SDS011;33199;47.590;8.300;2022-09-02T00:42:44;1.70;;;0.95;;
30593;SDS011;33199;47.590;8.300;2022-09-02T00:45:10;1.15;;;1.00;;
30593;SDS011;33199;47.590;8.300;2022-09-02T00:47:37;1.33;;;1.30;;
30593;SDS011;33199;47.590;8.300;2022-09-02T00:50:04;1.10;;;1.10;;
30593;SDS011;33199;47.590;8.300;2022-09-02T00:52:36;1.08;;;1.08;;
30593;SDS011;33199;47.590;8.300;2022-09-02T00:55:09;0.90;;;0.90;;
30593;SDS011;33199;47.590;8.300;2022-09-02T00:57:40;0.80;;;0.80;;
30593;SDS011;33199;47.590;8.300;2022-09-02T01:00:20;0.90;;;0.90;;
30593;SDS011;33199;47.590;8.300;2022-09-02T01:02:51;1.10;;;1.05;;
30593;SDS011;33199;47.590;8.300;2022-09-02T01:05:19;0.90;;;0.90;;
30593;SDS011;33199;47.590;8.300;2022-09-02T01:07:47;0.88;;;0.88;;
30593;SDS011;33199;47.590;8.300;2022-09-02T01:10:17;0.85;;;0.85;;
30593;SDS011;33199;47.590;8.300;2022-09-02T01:12:45;1.25;;;1.00;;
30593;SDS011;33199;47.590;8.300;2022-09-02T01:15:11;1.00;;;1.00;;
30593;SDS011;33199;47.590;8.300;2022-09-02T01:17:40;1.00;;;1.00;;
30593;SDS011;33199;47.590;8.300;2022-09-02T01:20:11;0.70;;;0.70;;
30593;SDS011;33199;47.590;8.300;2022-09-02T01:22:40;0.80;;;0.80;;
30593;SDS011;33199;47.590;8.300;2022-09-02T01:25:10;1.08;;;1.08;;
30593;SDS011;33199;47.590;8.300;2022-09-02T01:27:38;0.90;;;0.90;;
30593;SDS011;33199;47.590;8.300;2022-09-02T01:30:04;0.90;;;0.90;;
30593;SDS011;33199;47.590;8.300;2022-09-02T01:34:57;0.95;;;0.95;;
30593;SDS011;33199;47.590;8.300;2022-09-02T01:37:23;0.90;;;0.90;;
30593;SDS011;33199;47.590;8.300;2022-09-02T01:39:50;0.73;;;0.73;;
30593;SDS011;33199;47.590;8.300;2022-09-02T01:42:16;0.93;;;0.93;;
30593;SDS011;33199;47.590;8.300;2022-09-02T01:44:42;1.00;;;1.00;;
30593;SDS011;33199;47.590;8.300;2022-09-02T01:47:09;1.17;;;1.05;;
30593;SDS011;33199;47.590;8.300;2022-09-02T01:49:35;0.87;;;0.87;;
30593;SDS011;33199;47.590;8.300;2022-09-02T01:52:01;0.90;;;0.90;;
30593;SDS011;33199;47.590;8.300;2022-09-02T01:54:28;1.02;;;1.02;;
30593;SDS011;33199;47.590;8.300;2022-09-02T01:56:53;0.90;;;0.90;;
30593;SDS011;33199;47.590;8.300;2022-09-02T01:59:19;1.13;;;1.10;;
30593;SDS011;33199;47.590;8.300;2022-09-02T02:01:45;0.82;;;0.82;;
30593;SDS011;33199;47.590;8.300;2022-09-02T02:04:11;0.70;;;0.70;;
30593;SDS011;33199;47.590;8.300;2022-09-02T02:06:44;1.10;;;1.00;;
30593;SDS011;33199;47.590;8.300;2022-09-02T02:09:12;1.38;;;1.10;;
30593;SDS011;33199;47.590;8.300;2022-09-02T02:11:38;0.88;;;0.88;;
30593;SDS011;33199;47.590;8.300;2022-09-02T02:14:04;1.08;;;1.08;;
30593;SDS011;33199;47.590;8.300;2022-09-02T02:16:30;1.15;;;0.93;;
30593;SDS011;33199;47.590;8.300;2022-09-02T02:18:56;0.90;;;0.90;;
30593;SDS011;33199;47.590;8.300;2022-09-02T02:21:22;0.70;;;0.70;;
30593;SDS011;33199;47.590;8.300;2022-09-02T02:23:47;0.90;;;0.90;;
30593;SDS011;33199;47.590;8.300;2022-09-02T02:26:13;0.90;;;0.90;;
30593;SDS011;33199;47.590;8.300;2022-09-02T02:28:39;1.10;;;1.02;;
30593;SDS011;33199;47.590;8.300;2022-09-02T02:31:04;0.85;;;0.85;;
30593;SDS011;33199;47.590;8.300;2022-09-02T02:33:31;1.95;;;1.05;;
30593;SDS011;33199;47.590;8.300;2022-09-02T02:35:57;0.73;;;0.73;;
30593;SDS011;33199;47.590;8.300;2022-09-02T02:38:23;0.90;;;0.90;;
30593;SDS011;33199;47.590;8.300;2022-09-02T02:40:49;0.98;;;0.98;;
30593;SDS011;33199;47.590;8.300;2022-09-02T02:43:19;0.80;;;0.80;;
30593;SDS011;33199;47.590;8.300;2022-09-02T02:45:44;1.23;;;1.10;;
30593;SDS011;33199;47.590;8.300;2022-09-02T02:48:11;1.15;;;1.00;;
30593;SDS011;33199;47.590;8.300;2022-09-02T02:50:37;0.90;;;0.90;;
30593;SDS011;33199;47.590;8.300;2022-09-02T02:53:03;0.90;;;0.90;;
30593;SDS011;33199;47.590;8.300;2022-09-02T02:55:29;1.30;;;0.98;;
30593;SDS011;33199;47.590;8.300;2022-09-02T02:57:55;1.00;;;1.00;;
30593;SDS011;33199;47.590;8.300;2022-09-02T03:00:24;0.90;;;0.90;;
30593;SDS011;33199;47.590;8.300;2022-09-02T03:02:56;1.00;;;1.00;;
30593;SDS011;33199;47.590;8.300;2022-09-02T03:05:23;0.90;;;0.90;;
30593;SDS011;33199;47.590;8.300;2022-09-02T03:07:49;0.90;;;0.90;;
30593;SDS011;33199;47.590;8.300;2022-09-02T03:10:15;1.98;;;1.20;;
30593;SDS011;33199;47.590;8.300;2022-09-02T03:12:41;1.63;;;1.00;;
30593;SDS011;33199;47.590;8.300;2022-09-02T03:15:10;2.03;;;0.80;;
30593;SDS011;33199;47.590;8.300;2022-09-02T03:17:36;1.17;;;1.08;;
30593;SDS011;33199;47.590;8.300;2022-09-02T03:20:03;1.20;;;1.10;;
30593;SDS011;33199;47.590;8.300;2022-09-02T03:22:30;1.15;;;0.85;;
30593;SDS011;33199;47.590;8.300;2022-09-02T03:24:55;0.90;;;0.90;;
30593;SDS011;33199;47.590;8.300;2022-09-02T03:27:21;0.95;;;0.95;;
30593;SDS011;33199;47.590;8.300;2022-09-02T03:29:46;0.88;;;0.88;;
30593;SDS011;33199;47.590;8.300;2022-09-02T03:32:12;1.65;;;1.20;;
30593;SDS011;33199;47.590;8.300;2022-09-02T03:34:37;1.20;;;1.10;;
30593;SDS011;33199;47.590;8.300;2022-09-02T03:37:03;1.00;;;0.88;;
30593;SDS011;33199;47.590;8.300;2022-09-02T03:39:28;0.90;;;0.90;;
30593;SDS011;33199;47.590;8.300;2022-09-02T03:41:54;0.80;;;0.80;;
30593;SDS011;33199;47.590;8.300;2022-09-02T03:44:20;1.02;;;1.02;;
30593;SDS011;33199;47.590;8.300;2022-09-02T03:46:45;1.83;;;0.98;;
30593;SDS011;33199;47.590;8.300;2022-09-02T03:49:11;0.70;;;0.70;;
30593;SDS011;33199;47.590;8.300;2022-09-02T03:51:40;0.95;;;0.93;;
30593;SDS011;33199;47.590;8.300;2022-09-02T03:54:07;1.70;;;1.00;;
30593;SDS011;33199;47.590;8.300;2022-09-02T03:56:34;1.00;;;0.85;;
30593;SDS011;33199;47.590;8.300;2022-09-02T03:59:00;1.00;;;1.00;;
30593;SDS011;33199;47.590;8.300;2022-09-02T04:01:26;5.47;;;1.60;;
30593;SDS011;33199;47.590;8.300;2022-09-02T04:03:52;4.25;;;1.25;;
30593;SDS011;33199;47.590;8.300;2022-09-02T04:06:19;3.28;;;1.42;;
30593;SDS011;33199;47.590;8.300;2022-09-02T04:08:46;4.82;;;1.10;;
30593;SDS011;33199;47.590;8.300;2022-09-02T04:11:13;1.00;;;1.00;;
30593;SDS011;33199;47.590;8.300;2022-09-02T04:13:41;1.83;;;1.48;;
30593;SDS011;33199;47.590;8.300;2022-09-02T04:16:09;1.30;;;1.20;;
30593;SDS011;33199;47.590;8.300;2022-09-02T04:18:37;3.83;;;1.17;;
30593;SDS011;33199;47.590;8.300;2022-09-02T04:21:03;2.88;;;1.00;;
30593;SDS011;33199;47.590;8.300;2022-09-02T04:23:30;1.13;;;1.02;;
30593;SDS011;33199;47.590;8.300;2022-09-02T04:25:56;3.83;;;1.20;;
30593;SDS011;33199;47.590;8.300;2022-09-02T04:28:22;1.23;;;1.10;;
30593;SDS011;33199;47.590;8.300;2022-09-02T04:30:47;0.93;;;0.93;;
30593;SDS011;33199;47.590;8.300;2022-09-02T04:33:13;1.02;;;1.02;;
30593;SDS011;33199;47.590;8.300;2022-09-02T04:35:41;3.63;;;1.30;;
30593;SDS011;33199;47.590;8.300;2022-09-02T04:38:08;1.02;;;1.02;;
30593;SDS011;33199;47.590;8.300;2022-09-02T04:40:33;3.38;;;1.30;;
30593;SDS011;33199;47.590;8.300;2022-09-02T04:43:00;1.20;;;1.10;;
30593;SDS011;33199;47.590;8.300;2022-09-02T04:45:25;3.40;;;1.10;;
30593;SDS011;33199;47.590;8.300;2022-09-02T04:47:51;0.93;;;0.93;;
30593;SDS011;33199;47.590;8.300;2022-09-02T04:50:16;2.85;;;0.95;;
30593;SDS011;33199;47.590;8.300;2022-09-02T04:52:42;1.10;;;1.00;;
30593;SDS011;33199;47.590;8.300;2022-09-02T04:55:08;2.45;;;0.82;;
30593;SDS011;33199;47.590;8.300;2022-09-02T04:57:34;1.10;;;0.90;;
30593;SDS011;33199;47.590;8.300;2022-09-02T05:00:00;1.00;;;0.90;;
30593;SDS011;33199;47.590;8.300;2022-09-02T05:02:28;1.40;;;1.13;;
30593;SDS011;33199;47.590;8.300;2022-09-02T05:04:54;0.90;;;0.90;;
30593;SDS011;33199;47.590;8.300;2022-09-02T05:07:20;3.72;;;1.15;;
30593;SDS011;33199;47.590;8.300;2022-09-02T05:09:45;1.23;;;1.13;;
30593;SDS011;33199;47.590;8.300;2022-09-02T05:12:11;1.35;;;1.25;;
30593;SDS011;33199;47.590;8.300;2022-09-02T05:14:37;1.00;;;1.00;;
30593;SDS011;33199;47.590;8.300;2022-09-02T05:17:03;1.00;;;0.85;;
30593;SDS011;33199;47.590;8.300;2022-09-02T05:19:28;1.05;;;1.05;;
30593;SDS011;33199;47.590;8.300;2022-09-02T05:21:55;3.72;;;1.00;;
30593;SDS011;33199;47.590;8.300;2022-09-02T05:24:23;1.05;;;1.00;;
30593;SDS011;33199;47.590;8.300;2022-09-02T05:26:49;1.35;;;0.93;;
30593;SDS011;33199;47.590;8.300;2022-09-02T05:29:15;1.02;;;0.88;;
30593;SDS011;33199;47.590;8.300;2022-09-02T05:31:44;1.20;;;1.10;;
30593;SDS011;33199;47.590;8.300;2022-09-02T05:34:10;2.75;;;0.95;;
30593;SDS011;33199;47.590;8.300;2022-09-02T05:36:36;0.98;;;0.98;;
30593;SDS011;33199;47.590;8.300;2022-09-02T05:39:01;1.00;;;1.00;;
30593;SDS011;33199;47.590;8.300;2022-09-02T05:41:29;1.00;;;0.90;;
30593;SDS011;33199;47.590;8.300;2022-09-02T05:43:55;1.00;;;1.00;;
30593;SDS011;33199;47.590;8.300;2022-09-02T05:46:24;2.03;;;0.77;;
30593;SDS011;33199;47.590;8.300;2022-09-02T05:48:50;1.80;;;1.05;;
30593;SDS011;33199;47.590;8.300;2022-09-02T05:51:32;0.80;;;0.80;;
30593;SDS011;33199;47.590;8.300;2022-09-02T05:53:58;1.42;;;1.33;;
30593;SDS011;33199;47.590;8.300;2022-09-02T05:56:25;1.20;;;1.10;;
30593;SDS011;33199;47.590;8.300;2022-09-02T05:58:54;1.20;;;1.10;;
30593;SDS011;33199;47.590;8.300;2022-09-02T06:01:22;3.15;;;1.00;;
30593;SDS011;33199;47.590;8.300;2022-09-02T06:03:49;1.35;;;0.90;;
30593;SDS011;33199;47.590;8.300;2022-09-02T06:06:16;0.90;;;0.90;;
30593;SDS011;33199;47.590;8.300;2022-09-02T06:08:43;0.90;;;0.90;;
30593;SDS011;33199;47.590;8.300;2022-09-02T06:11:11;0.88;;;0.88;;
30593;SDS011;33199;47.590;8.300;2022-09-02T06:13:40;1.10;;;1.10;;
30593;SDS011;33199;47.590;8.300;2022-09-02T06:16:06;1.13;;;0.70;;
30593;SDS011;33199;47.590;8.300;2022-09-02T06:18:34;0.80;;;0.80;;
30593;SDS011;33199;47.590;8.300;2022-09-02T06:21:02;0.95;;;0.93;;
30593;SDS011;33199;47.590;8.300;2022-09-02T06:23:28;1.00;;;1.00;;
30593;SDS011;33199;47.590;8.300;2022-09-02T06:25:54;0.93;;;0.93;;
30593;SDS011;33199;47.590;8.300;2022-09-02T06:28:19;0.93;;;0.93;;
30593;SDS011;33199;47.590;8.300;2022-09-02T06:30:45;1.08;;;1.08;;
30593;SDS011;33199;47.590;8.300;2022-09-02T06:33:12;2.35;;;0.90;;
30593;SDS011;33199;47.590;8.300;2022-09-02T06:35:39;0.90;;;0.90;;
30593;SDS011;33199;47.590;8.300;2022-09-02T06:38:07;0.80;;;0.80;;
30593;SDS011;33199;47.590;8.300;2022-09-02T06:40:34;1.02;;;1.00;;
30593;SDS011;33199;47.590;8.300;2022-09-02T06:43:01;1.00;;;1.00;;
30593;SDS011;33199;47.590;8.300;2022-09-02T06:45:26;1.08;;;0.90;;
30593;SDS011;33199;47.590;8.300;2022-09-02T06:47:52;0.77;;;0.77;;
30593;SDS011;33199;47.590;8.300;2022-09-02T06:50:18;0.95;;;0.95;;
30593;SDS011;33199;47.590;8.300;2022-09-02T06:52:44;3.90;;;1.20;;
30593;SDS011;33199;47.590;8.300;2022-09-02T06:55:09;1.15;;;1.15;;
30593;SDS011;33199;47.590;8.300;2022-09-02T06:57:36;0.90;;;0.90;;
30593;SDS011;33199;47.590;8.300;2022-09-02T07:00:03;1.00;;;1.00;;
30593;SDS011;33199;47.590;8.300;2022-09-02T07:02:30;1.20;;;1.10;;
30593;SDS011;33199;47.590;8.300;2022-09-02T07:04:55;1.23;;;1.20;;
30593;SDS011;33199;47.590;8.300;2022-09-02T07:07:34;1.05;;;0.98;;
30593;SDS011;33199;47.590;8.300;2022-09-02T07:10:05;0.98;;;0.98;;
30593;SDS011;33199;47.590;8.300;2022-09-02T07:12:33;1.00;;;0.90;;
30593;SDS011;33199;47.590;8.300;2022-09-02T07:15:00;1.08;;;1.00;;
30593;SDS011;33199;47.590;8.300;2022-09-02T07:17:26;1.98;;;1.10;;
30593;SDS011;33199;47.590;8.300;2022-09-02T07:19:51;1.00;;;1.00;;
30593;SDS011;33199;47.590;8.300;2022-09-02T07:22:19;1.33;;;0.98;;
30593;SDS011;33199;47.590;8.300;2022-09-02T07:24:45;1.85;;;1.00;;
30593;SDS011;33199;47.590;8.300;2022-09-02T07:27:11;0.90;;;0.90;;
30593;SDS011;33199;47.590;8.300;2022-09-02T07:29:37;0.80;;;0.80;;
30593;SDS011;33199;47.590;8.300;2022-09-02T07:32:02;1.10;;;1.00;;
30593;SDS011;33199;47.590;8.300;2022-09-02T07:34:28;1.33;;;1.00;;
30593;SDS011;33199;47.590;8.300;2022-09-02T07:36:54;0.98;;;0.93;;
30593;SDS011;33199;47.590;8.300;2022-09-02T07:39:19;1.20;;;1.20;;
30593;SDS011;33199;47.590;8.300;2022-09-02T07:41:47;1.00;;;0.82;;
30593;SDS011;33199;47.590;8.300;2022-09-02T07:44:15;0.95;;;0.95;;
30593;SDS011;33199;47.590;8.300;2022-09-02T07:46:42;0.95;;;0.95;;
30593;SDS011;33199;47.590;8.300;2022-09-02T07:49:08;1.00;;;1.00;;
30593;SDS011;33199;47.590;8.300;2022-09-02T07:51:36;0.90;;;0.90;;
30593;SDS011;33199;47.590;8.300;2022-09-02T07:54:04;0.90;;;0.90;;
30593;SDS011;33199;47.590;8.300;2022-09-02T07:56:30;0.90;;;0.90;;
30593;SDS011;33199;47.590;8.300;2022-09-02T07:59:00;0.95;;;0.90;;
30593;SDS011;33199;47.590;8.300;2022-09-02T08:01:25;0.90;;;0.80;;
30593;SDS011;33199;47.590;8.300;2022-09-02T08:03:51;0.80;;;0.80;;
30593;SDS011;33199;47.590;8.300;2022-09-02T08:06:18;0.82;;;0.82;;
30593;SDS011;33199;47.590;8.300;2022-09-02T08:08:45;0.90;;;0.90;;
30593;SDS011;33199;47.590;8.300;2022-09-02T08:11:11;0.98;;;0.98;;
30593;SDS011;33199;47.590;8.300;2022-09-02T08:13:39;1.08;;;0.90;;
30593;SDS011;33199;47.590;8.300;2022-09-02T08:16:05;1.10;;;0.85;;
30593;SDS011;33199;47.590;8.300;2022-09-02T08:18:31;4.10;;;1.30;;
30593;SDS011;33199;47.590;8.300;2022-09-02T08:20:57;2.10;;;1.10;;
30593;SDS011;33199;47.590;8.300;2022-09-02T08:23:23;1.88;;;1.30;;
30593;SDS011;33199;47.590;8.300;2022-09-02T08:25:49;2.35;;;1.10;;
30593;SDS011;33199;47.590;8.300;2022-09-02T08:28:14;2.92;;;1.48;;
30593;SDS011;33199;47.590;8.300;2022-09-02T08:30:40;3.05;;;1.50;;
30593;SDS011;33199;47.590;8.300;2022-09-02T08:33:05;7.53;;;1.25;;
30593;SDS011;33199;47.590;8.300;2022-09-02T08:35:31;3.22;;;0.85;;
30593;SDS011;33199;47.590;8.300;2022-09-02T08:37:58;0.90;;;0.85;;
30593;SDS011;33199;47.590;8.300;2022-09-02T08:40:24;1.38;;;1.17;;
30593;SDS011;33199;47.590;8.300;2022-09-02T08:46:03;2.53;;;1.10;;
30593;SDS011;33199;47.590;8.300;2022-09-02T08:48:36;1.45;;;1.25;;
30593;SDS011;33199;47.590;8.300;2022-09-02T08:51:10;2.30;;;1.30;;
30593;SDS011;33199;47.590;8.300;2022-09-02T08:53:49;2.15;;;1.20;;
30593;SDS011;33199;47.590;8.300;2022-09-02T08:56:16;1.92;;;0.90;;
30593;SDS011;33199;47.590;8.300;2022-09-02T08:58:43;1.00;;;1.00;;
30593;SDS011;33199;47.590;8.300;2022-09-02T09:04:17;1.13;;;0.90;;
30593;SDS011;33199;47.590;8.300;2022-09-02T09:17:58;3.55;;;1.05;;
30593;SDS011;33199;47.590;8.300;2022-09-02T09:20:28;0.93;;;0.93;;
30593;SDS011;33199;47.590;8.300;2022-09-02T09:22:58;0.90;;;0.90;;
30593;SDS011;33199;47.590;8.300;2022-09-02T09:25:28;1.17;;;1.00;;
30593;SDS011;33199;47.590;8.300;2022-09-02T09:28:00;1.08;;;1.00;;
30593;SDS011;33199;47.590;8.300;2022-09-02T09:30:26;4.10;;;1.20;;
30593;SDS011;33199;47.590;8.300;2022-09-02T09:32:55;1.63;;;0.82;;
30593;SDS011;33199;47.590;8.300;2022-09-02T09:35:24;1.77;;;1.00;;
30593;SDS011;33199;47.590;8.300;2022-09-02T09:37:52;1.67;;;1.58;;
30593;SDS011;33199;47.590;8.300;2022-09-02T09:45:35;1.13;;;1.02;;
30593;SDS011;33199;47.590;8.300;2022-09-02T09:48:23;1.67;;;1.02;;
30593;SDS011;33199;47.590;8.300;2022-09-02T09:53:34;0.90;;;0.90;;
30593;SDS011;33199;47.590;8.300;2022-09-02T10:01:17;0.80;;;0.80;;
30593;SDS011;33199;47.590;8.300;2022-09-02T10:03:54;1.40;;;0.90;;
30593;SDS011;33199;47.590;8.300;2022-09-02T10:06:35;0.82;;;0.82;;
30593;SDS011;33199;47.590;8.300;2022-09-02T10:09:05;1.30;;;1.05;;
30593;SDS011;33199;47.590;8.300;2022-09-02T10:11:53;3.53;;;2.00;;
30593;SDS011;33199;47.590;8.300;2022-09-02T10:14:34;2.33;;;0.90;;
30593;SDS011;33199;47.590;8.300;2022-09-02T10:20:02;1.17;;;1.08;;
30593;SDS011;33199;47.590;8.300;2022-09-02T10:25:51;0.98;;;0.98;;
30593;SDS011;33199;47.590;8.300;2022-09-02T10:31:28;0.90;;;0.90;;
30593;SDS011;33199;47.590;8.300;2022-09-02T10:45:22;0.82;;;0.82;;
30593;SDS011;33199;47.590;8.300;2022-09-02T10:47:52;1.08;;;0.90;;
30593;SDS011;33199;47.590;8.300;2022-09-02T10:50:51;1.20;;;0.98;;
30593;SDS011;33199;47.590;8.300;2022-09-02T10:56:22;1.27;;;1.27;;
30593;SDS011;33199;47.590;8.300;2022-09-02T11:01:45;1.40;;;0.80;;
30593;SDS011;33199;47.590;8.300;2022-09-02T11:04:14;1.00;;;1.00;;
30593;SDS011;33199;47.590;8.300;2022-09-02T11:07:01;0.90;;;0.90;;
30593;SDS011;33199;47.590;8.300;2022-09-02T11:17:40;0.95;;;0.82;;
30593;SDS011;33199;47.590;8.300;2022-09-02T11:20:11;1.00;;;0.80;;
30593;SDS011;33199;47.590;8.300;2022-09-02T11:23:02;1.00;;;0.98;;
30593;SDS011;33199;47.590;8.300;2022-09-02T11:25:43;1.00;;;0.90;;
30593;SDS011;33199;47.590;8.300;2022-09-02T11:28:26;1.35;;;1.00;;
30593;SDS011;33199;47.590;8.300;2022-09-02T11:37:06;1.15;;;1.05;;
30593;SDS011;33199;47.590;8.300;2022-09-02T11:42:48;0.93;;;0.90;;
30593;SDS011;33199;47.590;8.300;2022-09-02T11:45:39;0.90;;;0.90;;
30593;SDS011;33199;47.590;8.300;2022-09-02T11:53:25;0.98;;;0.88;;
30593;SDS011;33199;47.590;8.300;2022-09-02T11:55:57;0.85;;;0.85;;
30593;SDS011;33199;47.590;8.300;2022-09-02T12:03:45;1.00;;;1.00;;
30593;SDS011;33199;47.590;8.300;2022-09-02T12:06:16;1.00;;;0.90;;
30593;SDS011;33199;47.590;8.300;2022-09-02T12:14:02;0.90;;;0.80;;
30593;SDS011;33199;47.590;8.300;2022-09-02T12:21:20;1.10;;;1.00;;
30593;SDS011;33199;47.590;8.300;2022-09-02T12:26:22;0.73;;;0.73;;
30593;SDS011;33199;47.590;8.300;2022-09-02T12:28:50;1.02;;;1.02;;
30593;SDS011;33199;47.590;8.300;2022-09-02T12:31:39;1.07;;;0.97;;
30593;SDS011;33199;47.590;8.300;2022-09-02T12:36:57;1.42;;;1.33;;
30593;SDS011;33199;47.590;8.300;2022-09-02T12:44:42;2.05;;;1.45;;
30593;SDS011;33199;47.590;8.300;2022-09-02T12:52:48;1.50;;;1.40;;
30593;SDS011;33199;47.590;8.300;2022-09-02T12:55:25;3.30;;;1.73;;
30593;SDS011;33199;47.590;8.300;2022-09-02T12:57:54;5.32;;;1.65;;
30593;SDS011;33199;47.590;8.300;2022-09-02T13:00:38;1.65;;;1.55;;
30593;SDS011;33199;47.590;8.300;2022-09-02T13:06:10;1.92;;;1.55;;
30593;SDS011;33199;47.590;8.300;2022-09-02T13:09:14;3.30;;;1.58;;
30593;SDS011;33199;47.590;8.300;2022-09-02T13:12:19;2.72;;;1.50;;
30593;SDS011;33199;47.590;8.300;2022-09-02T13:17:59;3.25;;;1.40;;
30593;SDS011;33199;47.590;8.300;2022-09-02T13:21:04;1.90;;;1.70;;
30593;SDS011;33199;47.590;8.300;2022-09-02T13:24:08;1.67;;;1.30;;
30593;SDS011;33199;47.590;8.300;2022-09-02T13:32:34;4.07;;;1.40;;
30593;SDS011;33199;47.590;8.300;2022-09-02T13:35:03;1.63;;;1.40;;
30593;SDS011;33199;47.590;8.300;2022-09-02T13:37:32;1.70;;;1.40;;
30593;SDS011;33199;47.590;8.300;2022-09-02T13:42:47;1.70;;;1.60;;
30593;SDS011;33199;47.590;8.300;2022-09-02T13:45:17;1.33;;;1.23;;
30593;SDS011;33199;47.590;8.300;2022-09-02T13:47:45;1.55;;;1.45;;
30593;SDS011;33199;47.590;8.300;2022-09-02T13:50:14;1.50;;;1.38;;
30593;SDS011;33199;47.590;8.300;2022-09-02T13:52:43;2.95;;;1.50;;
30593;SDS011;33199;47.590;8.300;2022-09-02T13:55:12;1.40;;;1.30;;
30593;SDS011;33199;47.590;8.300;2022-09-02T13:57:44;2.47;;;1.42;;
30593;SDS011;33199;47.590;8.300;2022-09-02T14:00:32;1.48;;;1.30;;
30593;SDS011;33199;47.590;8.300;2022-09-02T14:03:01;1.50;;;1.40;;
30593;SDS011;33199;47.590;8.300;2022-09-02T14:05:39;1.85;;;1.48;;
30593;SDS011;33199;47.590;8.300;2022-09-02T14:08:10;1.50;;;1.40;;
30593;SDS011;33199;47.590;8.300;2022-09-02T14:10:38;1.52;;;1.42;;
30593;SDS011;33199;47.590;8.300;2022-09-02T14:13:05;1.20;;;1.20;;
30593;SDS011;33199;47.590;8.300;2022-09-02T14:15:33;4.93;;;1.17;;
30593;SDS011;33199;47.590;8.300;2022-09-02T14:18:32;1.38;;;1.27;;
30593;SDS011;33199;47.590;8.300;2022-09-02T14:20:52;1.50;;;1.40;;
30593;SDS011;33199;47.590;8.300;2022-09-02T14:23:21;1.73;;;1.60;;
30593;SDS011;33199;47.590;8.300;2022-09-02T14:25:57;1.48;;;1.42;;
30593;SDS011;33199;47.590;8.300;2022-09-02T14:28:31;7.47;;;1.40;;
30593;SDS011;33199;47.590;8.300;2022-09-02T14:31:05;1.60;;;1.50;;
30593;SDS011;33199;47.590;8.300;2022-09-02T14:36:12;1.40;;;1.30;;
30593;SDS011;33199;47.590;8.300;2022-09-02T14:39:13;1.58;;;1.08;;
30593;SDS011;33199;47.590;8.300;2022-09-02T14:41:42;1.30;;;1.30;;
30593;SDS011;33199;47.590;8.300;2022-09-02T14:44:29;1.20;;;1.10;;
30593;SDS011;33199;47.590;8.300;2022-09-02T14:47:05;1.58;;;1.55;;
30593;SDS011;33199;47.590;8.300;2022-09-02T14:49:50;1.30;;;1.20;;
30593;SDS011;33199;47.590;8.300;2022-09-02T14:52:24;1.48;;;1.30;;
30593;SDS011;33199;47.590;8.300;2022-09-02T14:54:54;1.73;;;1.23;;
30593;SDS011;33199;47.590;8.300;2022-09-02T14:57:25;1.10;;;1.10;;
30593;SDS011;33199;47.590;8.300;2022-09-02T14:59:52;1.75;;;1.20;;
30593;SDS011;33199;47.590;8.300;2022-09-02T15:07:18;4.10;;;1.88;;
30593;SDS011;33199;47.590;8.300;2022-09-02T15:09:43;3.92;;;1.83;;
30593;SDS011;33199;47.590;8.300;2022-09-02T15:12:10;4.20;;;1.70;;
30593;SDS011;33199;47.590;8.300;2022-09-02T15:14:37;3.03;;;1.58;;
30593;SDS011;33199;47.590;8.300;2022-09-02T15:17:04;3.88;;;1.75;;
30593;SDS011;33199;47.590;8.300;2022-09-02T15:19:32;1.67;;;1.58;;
30593;SDS011;33199;47.590;8.300;2022-09-02T15:21:58;3.42;;;1.60;;
30593;SDS011;33199;47.590;8.300;2022-09-02T15:24:23;2.08;;;1.63;;
30593;SDS011;33199;47.590;8.300;2022-09-02T15:26:49;2.60;;;1.80;;
30593;SDS011;33199;47.590;8.300;2022-09-02T15:29:15;1.80;;;1.70;;
30593;SDS011;33199;47.590;8.300;2022-09-02T15:31:42;2.13;;;1.80;;
30593;SDS011;33199;47.590;8.300;2022-09-02T15:34:08;3.40;;;2.08;;
30593;SDS011;33199;47.590;8.300;2022-09-02T15:36:34;3.53;;;1.50;;
30593;SDS011;33199;47.590;8.300;2022-09-02T15:38:59;2.40;;;1.60;;
30593;SDS011;33199;47.590;8.300;2022-09-02T15:41:25;10.23;;;2.42;;
30593;SDS011;33199;47.590;8.300;2022-09-02T15:43:51;9.10;;;2.20;;
30593;SDS011;33199;47.590;8.300;2022-09-02T15:46:24;8.80;;;2.17;;
30593;SDS011;33199;47.590;8.300;2022-09-02T15:48:52;3.15;;;2.00;;
30593;SDS011;33199;47.590;8.300;2022-09-02T15:51:19;9.02;;;1.80;;
30593;SDS011;33199;47.590;8.300;2022-09-02T15:53:46;3.70;;;1.80;;
30593;SDS011;33199;47.590;8.300;2022-09-02T15:56:16;7.72;;;2.17;;
30593;SDS011;33199;47.590;8.300;2022-09-02T15:58:43;1.67;;;1.58;;
30593;SDS011;33199;47.590;8.300;2022-09-02T16:01:09;7.15;;;1.60;;
30593;SDS011;33199;47.590;8.300;2022-09-02T16:03:35;2.97;;;1.70;;
30593;SDS011;33199;47.590;8.300;2022-09-02T16:06:01;6.38;;;1.98;;
30593;SDS011;33199;47.590;8.300;2022-09-02T16:08:28;1.95;;;1.65;;
30593;SDS011;33199;47.590;8.300;2022-09-02T16:10:54;6.70;;;1.88;;
30593;SDS011;33199;47.590;8.300;2022-09-02T16:13:20;2.15;;;1.65;;
30593;SDS011;33199;47.590;8.300;2022-09-02T16:15:46;2.17;;;1.70;;
30593;SDS011;33199;47.590;8.300;2022-09-02T16:18:12;5.18;;;2.10;;
30593;SDS011;33199;47.590;8.300;2022-09-02T16:20:37;3.38;;;1.98;;
30593;SDS011;33199;47.590;8.300;2022-09-02T16:23:03;3.10;;;2.00;;
30593;SDS011;33199;47.590;8.300;2022-09-02T16:25:29;8.80;;;1.60;;
30593;SDS011;33199;47.590;8.300;2022-09-02T16:27:54;10.38;;;2.33;;
30593;SDS011;33199;47.590;8.300;2022-09-02T16:30:20;3.80;;;1.17;;
30593;SDS011;33199;47.590;8.300;2022-09-02T16:32:47;2.28;;;1.30;;
30593;SDS011;33199;47.590;8.300;2022-09-02T16:35:15;2.60;;;1.15;;
30593;SDS011;33199;47.590;8.300;2022-09-02T16:37:41;2.53;;;1.10;;
30593;SDS011;33199;47.590;8.300;2022-09-02T16:40:06;1.50;;;1.35;;
30593;SDS011;33199;47.590;8.300;2022-09-02T16:42:32;5.07;;;1.38;;
30593;SDS011;33199;47.590;8.300;2022-09-02T16:44:58;2.92;;;1.58;;
30593;SDS011;33199;47.590;8.300;2022-09-02T16:47:23;2.00;;;1.13;;
30593;SDS011;33199;47.590;8.300;2022-09-02T16:49:49;4.13;;;1.20;;
30593;SDS011;33199;47.590;8.300;2022-09-02T16:52:14;2.80;;;1.13;;
30593;SDS011;33199;47.590;8.300;2022-09-02T16:54:40;3.03;;;1.50;;
30593;SDS011;33199;47.590;8.300;2022-09-02T16:57:07;8.93;;;1.30;;
30593;SDS011;33199;47.590;8.300;2022-09-02T16:59:33;4.93;;;1.20;;
30593;SDS011;33199;47.590;8.300;2022-09-02T17:01:58;2.83;;;1.27;;
30593;SDS011;33199;47.590;8.300;2022-09-02T17:04:24;4.25;;;1.20;;
30593;SDS011;33199;47.590;8.300;2022-09-02T17:06:50;8.13;;;1.25;;
30593;SDS011;33199;47.590;8.300;2022-09-02T17:09:15;3.28;;;1.00;;
30593;SDS011;33199;47.590;8.300;2022-09-02T17:11:41;1.92;;;1.10;;
30593;SDS011;33199;47.590;8.300;2022-09-02T17:14:10;1.88;;;1.30;;